createdAt,value
2022-08-17T00:00:55.546Z,69.07
2022-08-17T00:03:28.341Z,69.24
2022-08-17T00:06:12.154Z,69.24
2022-08-17T00:08:46.645Z,69.35
2022-08-17T00:11:20.305Z,69.27
2022-08-17T00:13:55.968Z,69.39
2022-08-17T00:16:55.906Z,69.39
2022-08-17T00:19:25.929Z,69.50
2022-08-17T00:22:32.033Z,69.43
2022-08-17T00:24:54.225Z,69.59
2022-08-17T00:27:24.276Z,69.68
2022-08-17T00:29:54.795Z,69.68
2022-08-17T00:33:12.525Z,69.67
2022-08-17T00:35:19.705Z,69.74
2022-08-17T00:37:47.480Z,69.60
2022-08-17T00:40:18.313Z,69.69
2022-08-17T00:42:50.120Z,69.74
2022-08-17T00:45:23.009Z,69.89
2022-08-17T00:47:51.013Z,69.99
2022-08-17T00:50:21.863Z,69.78
2022-08-17T00:52:57.179Z,69.95
2022-08-17T00:55:28.344Z,70.01
2022-08-17T00:58:03.311Z,70.01
2022-08-17T01:00:39.072Z,70.08
2022-08-17T01:03:19.509Z,69.91
2022-08-17T01:05:55.042Z,70.29
2022-08-17T01:08:27.773Z,70.13
2022-08-17T01:11:01.997Z,70.18
2022-08-17T01:13:44.658Z,70.15
2022-08-17T01:16:23.161Z,70.23
2022-08-17T01:18:56.884Z,70.30
2022-08-17T01:22:00.072Z,70.11
2022-08-17T01:24:31.689Z,70.33
2022-08-17T01:27:10.191Z,70.50
2022-08-17T01:29:44.658Z,70.56
2022-08-17T01:32:12.514Z,70.60
2022-08-17T01:34:43.908Z,70.75
2022-08-17T01:37:30.553Z,70.69
2022-08-17T01:40:20.069Z,70.67
2022-08-17T01:43:01.424Z,70.70
2022-08-17T01:45:35.068Z,70.72
2022-08-17T01:48:03.022Z,70.80
2022-08-17T01:50:37.987Z,70.90
2022-08-17T01:53:19.238Z,70.91
2022-08-17T01:55:56.936Z,71.03
2022-08-17T01:58:24.738Z,70.95
2022-08-17T02:01:01.017Z,71.08
2022-08-17T02:03:34.732Z,71.15
2022-08-17T02:06:05.920Z,71.08
2022-08-17T02:09:02.464Z,71.24
2022-08-17T02:11:38.502Z,71.20
2022-08-17T02:14:10.635Z,71.26
2022-08-17T02:16:42.104Z,71.25
2022-08-17T02:19:15.900Z,71.40
2022-08-17T02:21:50.471Z,71.44
2022-08-17T02:24:59.963Z,71.41
2022-08-17T02:27:17.470Z,71.43
2022-08-17T02:29:45.215Z,71.55
2022-08-17T02:32:28.663Z,71.49
2022-08-17T02:35:01.967Z,71.54
2022-08-17T02:37:34.399Z,71.64
2022-08-17T02:40:05.264Z,71.70
2022-08-17T02:42:38.698Z,71.66
2022-08-17T02:45:23.189Z,71.79
2022-08-17T02:47:55.201Z,71.81
2022-08-17T02:50:26.343Z,71.82
2022-08-17T02:53:01.697Z,71.82
2022-08-17T02:55:42.623Z,71.87
2022-08-17T02:58:13.685Z,71.68
2022-08-17T03:00:50.555Z,71.90
2022-08-17T03:03:21.144Z,71.84
2022-08-17T03:05:53.097Z,71.86
2022-08-17T03:08:24.309Z,71.98
2022-08-17T03:10:54.636Z,71.84
2022-08-17T03:13:25.064Z,71.89
2022-08-17T03:15:52.891Z,71.92
2022-08-17T03:18:25.755Z,71.93
2022-08-17T03:21:01.558Z,71.99
2022-08-17T03:23:32.444Z,72.01
2022-08-17T03:26:03.427Z,72.01
2022-08-17T03:28:42.453Z,72.07
2022-08-17T03:31:10.669Z,71.93
2022-08-17T03:33:38.984Z,72.05
2022-08-17T03:36:07.053Z,71.97
2022-08-17T03:38:39.040Z,72.09
2022-08-17T03:41:10.981Z,72.01
2022-08-17T03:43:38.747Z,72.09
2022-08-17T03:46:34.723Z,72.14
2022-08-17T03:49:28.519Z,72.10
2022-08-17T03:52:17.387Z,72.15
2022-08-17T03:55:05.370Z,72.23
2022-08-17T03:57:33.383Z,72.15
2022-08-17T04:00:01.399Z,72.21
2022-08-17T04:02:36.441Z,72.19
2022-08-17T04:05:06.732Z,72.20
2022-08-17T04:07:37.278Z,72.14
2022-08-17T04:10:05.430Z,72.21
2022-08-17T04:12:58.253Z,72.35
2022-08-17T04:15:26.376Z,72.49
2022-08-17T04:17:54.916Z,72.51
2022-08-17T04:20:27.659Z,72.55
2022-08-17T04:23:09.436Z,72.56
2022-08-17T04:25:49.126Z,72.63
2022-08-17T04:28:20.796Z,72.66
2022-08-17T04:30:50.743Z,72.61
2022-08-17T04:33:24.221Z,72.70
2022-08-17T04:36:01.945Z,72.77
2022-08-17T04:38:35.462Z,72.76
2022-08-17T04:41:25.854Z,72.78
2022-08-17T04:43:58.680Z,72.93
2022-08-17T04:46:35.014Z,72.96
2022-08-17T04:49:08.662Z,72.96
2022-08-17T04:51:54.591Z,73.07
2022-08-17T04:54:28.888Z,73.10
2022-08-17T04:56:56.681Z,73.12
2022-08-17T04:59:27.949Z,73.08
2022-08-17T05:01:57.349Z,73.08
2022-08-17T05:04:34.860Z,73.15
2022-08-17T05:07:06.465Z,73.27
2022-08-17T05:09:34.193Z,73.12
2022-08-17T05:12:06.264Z,73.11
2022-08-17T05:14:34.251Z,73.25
2022-08-17T05:17:10.846Z,73.27
2022-08-17T05:19:42.670Z,73.20
2022-08-17T05:22:10.469Z,73.21
2022-08-17T05:24:43.219Z,73.28
2022-08-17T05:27:19.048Z,73.41
2022-08-17T05:29:47.660Z,73.36
2022-08-17T05:32:38.392Z,73.46
2022-08-17T05:35:07.352Z,73.39
2022-08-17T05:37:35.076Z,73.45
2022-08-17T05:40:03.179Z,73.44
2022-08-17T05:42:30.972Z,73.52
2022-08-17T05:45:02.393Z,73.52
2022-08-17T05:47:31.946Z,73.60
2022-08-17T05:50:09.741Z,73.60
2022-08-17T05:53:10.535Z,73.55
2022-08-17T05:56:10.875Z,73.38
2022-08-17T05:59:15.828Z,73.50
2022-08-17T06:01:52.577Z,73.29
2022-08-17T06:04:29.051Z,73.54
2022-08-17T06:07:29.382Z,73.48
2022-08-17T06:10:14.837Z,73.39
2022-08-17T06:13:08.217Z,73.46
2022-08-17T06:16:03.438Z,73.16
2022-08-17T06:19:02.961Z,73.23
2022-08-17T06:21:37.262Z,73.25
2022-08-17T06:24:32.056Z,73.35
2022-08-17T06:27:24.701Z,73.29
2022-08-17T06:30:09.240Z,73.21
2022-08-17T06:32:44.579Z,73.31
2022-08-17T06:35:32.019Z,73.37
2022-08-17T06:38:07.343Z,73.15
2022-08-17T06:40:43.739Z,73.23
2022-08-17T06:43:47.880Z,73.46
2022-08-17T06:46:38.227Z,73.39
2022-08-17T06:49:21.921Z,73.34
2022-08-17T06:52:01.496Z,73.37
2022-08-17T06:54:38.447Z,73.55
2022-08-17T06:57:28.773Z,73.26
2022-08-17T07:00:13.118Z,73.66
2022-08-17T07:03:07.104Z,73.35
2022-08-17T07:05:38.841Z,73.04
2022-08-17T07:08:38.986Z,73.05
2022-08-17T07:11:15.930Z,72.97
2022-08-17T07:13:58.951Z,73.15
2022-08-17T07:16:34.430Z,72.96
2022-08-17T07:19:02.492Z,72.31
2022-08-17T07:21:48.333Z,71.56
2022-08-17T07:24:51.179Z,71.36
2022-08-17T07:27:23.350Z,70.98
2022-08-17T07:29:57.613Z,70.77
2022-08-17T07:32:39.852Z,70.40
2022-08-17T07:35:23.202Z,69.93
2022-08-17T07:38:24.973Z,69.73
2022-08-17T07:40:58.187Z,68.98
2022-08-17T07:43:36.135Z,69.04
2022-08-17T07:46:45.605Z,68.85
2022-08-17T07:49:13.258Z,68.65
2022-08-17T07:51:43.954Z,69.05
2022-08-17T07:54:15.194Z,68.06
2022-08-17T07:56:51.223Z,67.56
2022-08-17T07:59:33.722Z,67.01
2022-08-17T08:02:16.274Z,66.36
2022-08-17T08:05:00.638Z,66.53
2022-08-17T08:07:40.138Z,66.39
2022-08-17T08:10:13.928Z,65.83
2022-08-17T08:12:43.845Z,65.86
2022-08-17T08:15:21.415Z,65.60
2022-08-17T08:17:52.019Z,64.85
2022-08-17T08:20:51.833Z,65.01
2022-08-17T08:23:37.347Z,63.69
2022-08-17T08:26:20.502Z,63.40
2022-08-17T08:28:55.021Z,62.69
2022-08-17T08:32:04.823Z,62.14
2022-08-17T08:35:01.668Z,62.27
2022-08-17T08:38:15.390Z,61.91
2022-08-17T08:41:26.457Z,61.38
2022-08-17T08:44:15.829Z,60.97
2022-08-17T08:47:08.216Z,60.85
2022-08-17T08:53:08.572Z,60.13
2022-08-17T08:55:42.422Z,59.34
2022-08-17T08:58:31.958Z,58.84
2022-08-17T09:01:18.440Z,58.56
2022-08-17T09:03:52.868Z,58.67
2022-08-17T09:06:44.203Z,58.18
2022-08-17T09:09:34.674Z,57.93
2022-08-17T09:12:17.310Z,57.49
2022-08-17T09:14:57.356Z,57.53
2022-08-17T09:17:36.849Z,57.52
2022-08-17T09:20:28.298Z,56.95
2022-08-17T09:23:30.485Z,56.64
2022-08-17T09:26:13.810Z,56.48
2022-08-17T09:28:49.642Z,56.06
2022-08-17T09:31:26.825Z,55.90
2022-08-17T09:34:03.021Z,55.38
2022-08-17T09:37:00.907Z,55.40
2022-08-17T09:39:42.221Z,55.36
2022-08-17T09:42:16.433Z,55.38
2022-08-17T09:44:54.184Z,54.91
2022-08-17T09:47:32.719Z,54.83
2022-08-17T09:50:13.673Z,54.56
2022-08-17T09:52:42.433Z,54.59
2022-08-17T09:55:10.368Z,54.64
2022-08-17T09:57:50.101Z,54.57
2022-08-17T10:00:25.420Z,54.64
2022-08-17T10:03:10.528Z,54.51
2022-08-17T10:05:46.518Z,54.62
2022-08-17T10:08:39.224Z,54.57
2022-08-17T10:11:12.048Z,54.42
2022-08-17T10:13:52.727Z,54.61
2022-08-17T10:16:28.688Z,54.40
2022-08-17T10:19:03.404Z,54.34
2022-08-17T10:22:00.900Z,54.51
2022-08-17T10:25:21.525Z,54.34
2022-08-17T10:27:52.946Z,54.26
2022-08-17T10:30:25.828Z,54.28
2022-08-17T10:32:57.179Z,54.39
2022-08-17T10:35:57.054Z,54.26
2022-08-17T10:39:00.125Z,54.14
2022-08-17T10:41:42.391Z,53.90
2022-08-17T10:44:39.012Z,53.96
2022-08-17T10:47:16.627Z,53.87
2022-08-17T10:49:56.378Z,53.81
2022-08-17T10:52:27.343Z,53.89
2022-08-17T10:54:58.657Z,53.71
2022-08-17T10:57:26.707Z,53.80
2022-08-17T10:59:56.813Z,53.69
2022-08-17T11:02:28.627Z,53.86
2022-08-17T11:05:13.689Z,53.77
2022-08-17T11:08:05.672Z,53.57
2022-08-17T11:10:55.352Z,53.70
2022-08-17T11:13:45.264Z,53.71
2022-08-17T11:16:26.422Z,53.67
2022-08-17T11:18:57.328Z,53.75
2022-08-17T11:21:58.793Z,53.57
2022-08-17T11:24:37.740Z,53.72
2022-08-17T11:27:12.474Z,53.38
2022-08-17T11:30:01.885Z,53.69
2022-08-17T11:32:47.553Z,53.64
2022-08-17T11:35:22.085Z,53.64
2022-08-17T11:38:29.634Z,53.68
2022-08-17T11:41:22.820Z,53.50
2022-08-17T11:43:56.735Z,53.73
2022-08-17T11:47:30.330Z,53.71
2022-08-17T11:50:40.416Z,53.77
2022-08-17T11:53:37.443Z,53.67
2022-08-17T11:56:10.384Z,53.62
2022-08-17T11:58:42.500Z,53.70
2022-08-17T12:01:16.155Z,53.55
2022-08-17T12:03:56.013Z,53.55
2022-08-17T12:06:30.441Z,53.63
2022-08-17T12:09:31.716Z,53.66
2022-08-17T12:12:14.700Z,53.32
2022-08-17T12:17:50.417Z,53.43
2022-08-17T12:20:30.532Z,53.47
2022-08-17T12:23:05.547Z,53.33
2022-08-17T12:25:40.784Z,53.50
2022-08-17T12:28:46.093Z,53.29
2022-08-17T12:31:20.726Z,53.39
2022-08-17T12:33:51.847Z,53.42
2022-08-17T12:36:24.920Z,53.35
2022-08-17T12:39:13.271Z,53.33
2022-08-17T12:41:48.019Z,53.17
2022-08-17T12:44:24.475Z,53.21
2022-08-17T12:47:21.597Z,53.28
2022-08-17T12:49:55.840Z,53.37
2022-08-17T12:52:33.734Z,53.38
2022-08-17T12:55:21.962Z,53.21
2022-08-17T12:57:59.877Z,53.06
2022-08-17T13:00:34.867Z,53.21
2022-08-17T13:03:12.740Z,52.98
2022-08-17T13:05:57.857Z,53.02
2022-08-17T13:08:36.979Z,52.86
2022-08-17T13:11:24.255Z,52.75
2022-08-17T13:13:56.157Z,52.67
2022-08-17T13:16:30.052Z,52.96
2022-08-17T13:19:15.569Z,52.64
2022-08-17T13:21:51.496Z,52.44
2022-08-17T13:24:22.377Z,52.60
2022-08-17T13:26:59.350Z,52.47
2022-08-17T13:29:45.687Z,52.60
2022-08-17T13:32:36.159Z,52.50
2022-08-17T13:35:36.470Z,52.51
2022-08-17T13:38:14.639Z,52.18
2022-08-17T13:40:53.273Z,52.39
2022-08-17T13:43:46.843Z,52.35
2022-08-17T13:46:26.680Z,52.09
2022-08-17T13:49:11.953Z,52.29
2022-08-17T13:51:46.940Z,51.97
2022-08-17T13:54:30.550Z,51.89
2022-08-17T13:57:22.048Z,52.09
2022-08-17T13:59:58.383Z,51.98
2022-08-17T14:02:28.552Z,51.91
2022-08-17T14:05:06.064Z,51.83
2022-08-17T14:07:40.742Z,51.75
2022-08-17T14:10:20.122Z,51.73
2022-08-17T14:12:49.750Z,51.43
2022-08-17T14:15:24.652Z,51.47
2022-08-17T14:18:12.572Z,51.50
2022-08-17T14:20:40.335Z,51.34
2022-08-17T14:23:11.033Z,51.29
2022-08-17T14:25:38.825Z,51.37
2022-08-17T14:28:11.522Z,51.29
2022-08-17T14:30:43.344Z,51.27
2022-08-17T14:33:11.374Z,51.10
2022-08-17T14:35:39.136Z,51.01
2022-08-17T14:38:06.904Z,51.03
2022-08-17T14:40:35.453Z,51.14
2022-08-17T14:43:05.164Z,51.11
2022-08-17T14:45:33.566Z,50.95
2022-08-17T14:48:08.457Z,50.94
2022-08-17T14:50:42.472Z,50.92
2022-08-17T14:53:16.328Z,50.88
2022-08-17T14:55:46.893Z,51.01
2022-08-17T14:58:22.949Z,50.85
2022-08-17T15:00:54.687Z,50.82
2022-08-17T15:03:24.031Z,51.24
2022-08-17T15:05:54.052Z,51.29
2022-08-17T15:08:21.887Z,51.49
2022-08-17T15:10:54.799Z,51.23
2022-08-17T15:13:26.260Z,51.42
2022-08-17T15:15:55.257Z,51.30
2022-08-17T15:18:23.160Z,51.39
2022-08-17T15:20:51.194Z,51.47
2022-08-17T15:23:22.307Z,51.67
2022-08-17T15:25:54.976Z,51.63
2022-08-17T15:28:27.409Z,51.45
2022-08-17T15:30:55.151Z,51.62
2022-08-17T15:33:31.323Z,51.61
2022-08-17T15:36:07.007Z,51.60
2022-08-17T15:38:40.342Z,51.49
2022-08-17T15:41:17.965Z,51.74
2022-08-17T15:43:51.562Z,51.67
2022-08-17T15:46:24.084Z,51.75
2022-08-17T15:49:00.336Z,51.59
2022-08-17T15:51:37.215Z,51.92
2022-08-17T15:54:22.206Z,52.00
2022-08-17T15:56:55.999Z,51.95
2022-08-17T15:59:30.399Z,51.91
2022-08-17T16:03:13.109Z,52.10
2022-08-17T16:04:49.846Z,51.94
2022-08-17T16:07:26.568Z,51.81
2022-08-17T16:09:58.986Z,51.92
2022-08-17T16:12:26.914Z,52.24
2022-08-17T16:14:58.134Z,52.08
2022-08-17T16:17:39.730Z,52.43
2022-08-17T16:20:19.695Z,52.20
2022-08-17T16:22:50.316Z,52.18
2022-08-17T16:25:22.122Z,52.13
2022-08-17T16:27:53.593Z,52.33
2022-08-17T16:30:25.445Z,52.62
2022-08-17T16:32:55.324Z,52.66
2022-08-17T16:35:26.412Z,52.68
2022-08-17T16:37:56.601Z,52.99
2022-08-17T16:40:27.702Z,52.80
2022-08-17T16:42:57.677Z,53.10
2022-08-17T16:45:29.380Z,52.97
2022-08-17T16:47:59.246Z,53.34
2022-08-17T16:50:27.444Z,52.92
2022-08-17T16:53:06.551Z,53.17
2022-08-17T16:55:35.874Z,53.18
2022-08-17T16:58:05.238Z,53.16
2022-08-17T17:00:33.763Z,53.05
2022-08-17T17:03:20.138Z,53.15
2022-08-17T17:05:55.115Z,53.10
2022-08-17T17:08:30.413Z,53.18
2022-08-17T17:11:03.914Z,53.07
2022-08-17T17:14:02.180Z,53.00
2022-08-17T17:16:45.783Z,53.04
2022-08-17T17:19:34.962Z,53.12
2022-08-17T17:22:23.005Z,53.10
2022-08-17T17:25:30.295Z,53.18
2022-08-17T17:28:07.986Z,53.16
2022-08-17T17:30:56.758Z,53.38
2022-08-17T17:33:37.485Z,53.61
2022-08-17T17:36:14.889Z,53.51
2022-08-17T17:38:53.022Z,53.46
2022-08-17T17:41:29.079Z,53.60
2022-08-17T17:44:08.158Z,53.58
2022-08-17T17:46:43.757Z,53.63
2022-08-17T17:49:14.391Z,53.67
2022-08-17T17:52:10.102Z,53.70
2022-08-17T17:55:02.182Z,53.80
2022-08-17T17:57:47.298Z,53.70
2022-08-17T18:00:21.934Z,53.97
2022-08-17T18:03:15.324Z,54.07
2022-08-17T18:05:57.306Z,54.03
2022-08-17T18:08:31.040Z,53.93
2022-08-17T18:11:26.472Z,54.03
2022-08-17T18:14:37.602Z,54.11
2022-08-17T18:17:06.981Z,54.33
2022-08-17T18:19:35.376Z,54.33
2022-08-17T18:22:18.731Z,54.33
2022-08-17T18:24:56.534Z,54.36
2022-08-17T18:27:28.287Z,54.53
2022-08-17T18:30:00.206Z,54.52
2022-08-17T18:32:34.431Z,54.53
2022-08-17T18:35:09.159Z,54.61
2022-08-17T18:37:53.412Z,54.79
2022-08-17T18:40:31.644Z,54.75
2022-08-17T18:43:10.420Z,54.86
2022-08-17T18:45:46.867Z,54.97
2022-08-17T18:48:33.100Z,55.01
2022-08-17T18:51:39.750Z,55.08
2022-08-17T18:54:20.857Z,55.15
2022-08-17T18:56:52.696Z,55.34
2022-08-17T18:59:45.756Z,55.25
2022-08-17T19:02:36.098Z,55.45
2022-08-17T19:05:25.707Z,55.53
2022-08-17T19:07:55.039Z,55.43
2022-08-17T19:10:31.617Z,55.49
2022-08-17T19:13:12.771Z,55.62
2022-08-17T19:16:11.610Z,55.73
2022-08-17T19:18:58.150Z,55.80
2022-08-17T19:21:48.282Z,55.81
2022-08-17T19:24:19.909Z,56.03
2022-08-17T19:26:56.910Z,56.00
2022-08-17T19:29:54.101Z,56.07
2022-08-17T19:32:27.112Z,56.17
2022-08-17T19:34:56.673Z,56.24
2022-08-17T19:38:04.029Z,56.44
2022-08-17T19:40:55.217Z,56.55
2022-08-17T19:43:41.852Z,56.54
2022-08-17T19:46:20.140Z,56.62
2022-08-17T19:48:54.631Z,56.73
2022-08-17T19:51:54.414Z,56.78
2022-08-17T19:54:39.212Z,56.85
2022-08-17T19:57:11.526Z,56.83
2022-08-17T20:00:06.511Z,57.16
2022-08-17T20:03:16.843Z,57.26
2022-08-17T20:06:11.514Z,57.34
2022-08-17T20:08:49.583Z,57.40
2022-08-17T20:11:25.059Z,57.59
2022-08-17T20:14:03.043Z,57.55
2022-08-17T20:16:33.388Z,57.65
2022-08-17T20:19:06.913Z,57.62
2022-08-17T20:21:59.488Z,57.75
2022-08-17T20:24:43.489Z,57.66
2022-08-17T20:27:21.599Z,57.83
2022-08-17T20:30:29.985Z,57.90
2022-08-17T20:33:00.194Z,58.02
2022-08-17T20:35:37.433Z,58.28
2022-08-17T20:38:14.401Z,58.42
2022-08-17T20:40:54.143Z,58.58
2022-08-17T20:43:35.713Z,58.61
2022-08-17T20:46:19.867Z,58.88
2022-08-17T20:48:55.295Z,58.85
2022-08-17T20:51:39.517Z,58.99
2022-08-17T20:54:20.086Z,59.03
2022-08-17T20:56:52.451Z,58.96
2022-08-17T20:59:26.071Z,59.09
2022-08-17T21:02:18.641Z,59.25
2022-08-17T21:04:52.382Z,59.21
2022-08-17T21:07:41.189Z,59.14
2022-08-17T21:10:25.839Z,59.35
2022-08-17T21:13:40.517Z,59.42
2022-08-17T21:16:42.368Z,59.56
2022-08-17T21:19:19.305Z,59.92
2022-08-17T21:22:28.904Z,59.74
2022-08-17T21:25:48.326Z,60.14
2022-08-17T21:28:34.183Z,60.23
2022-08-17T21:31:26.868Z,59.89
2022-08-17T21:34:15.722Z,60.25
2022-08-17T21:36:48.186Z,60.16
2022-08-17T21:39:28.310Z,60.48
2022-08-17T21:42:05.255Z,60.44
2022-08-17T21:44:48.630Z,60.64
2022-08-17T21:47:24.055Z,60.66
2022-08-17T21:49:55.485Z,60.76
2022-08-17T21:52:28.495Z,60.65
2022-08-17T21:55:02.601Z,60.77
2022-08-17T21:57:33.627Z,61.08
2022-08-17T22:00:06.430Z,61.20
2022-08-17T22:02:38.494Z,61.26
2022-08-17T22:05:16.744Z,61.45
2022-08-17T22:08:02.887Z,61.48
2022-08-17T22:10:41.495Z,61.40
2022-08-17T22:13:16.521Z,61.52
2022-08-17T22:16:15.441Z,61.62
2022-08-17T22:19:00.453Z,61.80
2022-08-17T22:21:28.250Z,61.73
2022-08-17T22:24:04.653Z,61.87
2022-08-17T22:27:02.513Z,61.68
2022-08-17T22:29:57.149Z,62.09
2022-08-17T22:32:50.261Z,62.06
2022-08-17T22:35:39.399Z,62.10
2022-08-17T22:38:19.296Z,62.18
2022-08-17T22:40:54.715Z,62.22
2022-08-17T22:43:28.769Z,62.29
2022-08-17T22:46:11.517Z,62.49
2022-08-17T22:48:49.257Z,62.38
2022-08-17T22:51:28.481Z,62.57
2022-08-17T22:54:36.782Z,62.61
2022-08-17T22:57:31.223Z,62.66
2022-08-17T23:00:26.912Z,62.75
2022-08-17T23:03:13.203Z,62.85
2022-08-17T23:06:06.477Z,62.87
2022-08-17T23:08:59.215Z,62.86
2022-08-17T23:11:50.440Z,63.05
2022-08-17T23:14:26.811Z,63.12
2022-08-17T23:16:54.608Z,63.10
2022-08-17T23:19:22.546Z,63.21
2022-08-17T23:21:57.022Z,63.21
2022-08-17T23:24:30.527Z,63.44
2022-08-17T23:26:59.215Z,63.49
2022-08-17T23:29:29.629Z,63.56
2022-08-17T23:32:00.096Z,63.46
2022-08-17T23:34:28.684Z,63.68
2022-08-17T23:36:56.508Z,63.77
2022-08-17T23:39:27.884Z,63.72
2022-08-17T23:41:59.327Z,63.81
2022-08-17T23:44:29.380Z,63.94
2022-08-17T23:46:58.029Z,63.97
2022-08-17T23:49:25.942Z,64.12
2022-08-17T23:51:55.507Z,64.16
2022-08-17T23:54:33.934Z,64.05
2022-08-17T23:57:04.745Z,64.24
2022-08-17T23:59:34.131Z,64.32
